Latest Weather Observations for Maria Island

IDT60801

Issued at 7:32 am EST Saturday 18 August 2018 (issued every 10 minutes, with the page automatically refreshed every 10 minutes)

About weather observations | Map of weather stations | Latest weather observations for TAS | Other Formats
Station Details ID: 092124 Name: MARIA ISLAND (POINT LESUEUR) Lat: -42.66 Lon: 148.02 Height: 28.0 m
Data from the previous 72 hours. | See also: Recent months at Maria Island
Date/Time
EST
Temp
°C
App
Temp
°C
Dew
Point
°C
Rel
Hum
%
Delta-T
°C
Wind Press
QNH
hPa
Press
MSL
hPa
Rain since
9am
mm
Dir  Spd
km/h
Gust
km/h
Spd
kts
Gust
kts
18/07:30am 8.5 3.8 3.1 69 2.3 NNW 17 20 9 11 998.6 998.7 1.6
18/07:00am 8.0 2.8 3.7 74 1.9 WNW 20 28 11 15 998.4 998.5 1.6
18/06:30am 8.6 2.4 4.2 74 1.9 WNW 26 32 14 17 997.8 997.9 1.6
18/06:00am 8.7 3.8 3.9 72 2.1 W 19 22 10 12 997.1 997.2 1.6
18/05:30am 8.9 4.4 4.1 72 2.1 W 17 24 9 13 996.9 997.0 1.6
18/05:00am 9.2 3.9 4.8 74 2.0 WNW 22 30 12 16 996.7 996.8 1.6
18/04:30am 9.3 4.5 5.5 77 1.7 WNW 20 28 11 15 996.4 996.5 1.6
18/04:00am 9.6 4.5 6.0 78 1.7 W 22 26 12 14 996.2 996.3 1.6
18/03:30am 9.7 3.6 6.6 81 1.4 WNW 28 35 15 19 995.8 995.9 1.6
18/03:00am 10.7 3.7 6.8 77 1.9 NW 33 39 18 21 995.5 995.6 0.8
18/02:50am 11.0 4.2 6.7 75 2.0 NNW 32 39 17 21 995.5 995.6 0.6
18/02:30am 11.8 3.2 6.7 71 2.4 N 41 52 22 28 995.4 995.5 0.0
18/02:00am 12.3 2.7 6.1 66 2.9 N 46 57 25 31 995.5 995.6 0.0
18/01:30am 12.4 1.8 6.7 68 2.7 N 52 63 28 34 995.4 995.5 0.0
18/01:00am 12.5 3.3 6.5 67 2.9 NNW 44 59 24 32 995.9 996.0 0.0
18/12:30am 12.6 2.3 6.4 66 2.9 NNW 50 59 27 32 996.4 996.5 0.0
18/12:00am 12.6 0.6 6.4 66 3.0 N 59 83 32 45 996.3 996.4 0.0
 
Date/Time
EST
Temp
°C
App
Temp
°C
Dew
Point
°C
Rel
Hum
%
Delta-T
°C
Wind Press
QNH
hPa
Press
MSL
hPa
Rain since
9am
mm
Dir  Spd
km/h
Gust
km/h
Spd
kts
Gust
kts
17/11:55pm 12.7 -0.1 6.3 65 3.0 N 63 83 34 45 995.6 995.7 0.0
17/11:30pm 12.5 0.2 6.8 68 2.7 N 61 72 33 39 996.4 996.5 0.0
17/11:00pm 12.4 1.0 6.9 69 2.7 N 56 74 30 40 997.1 997.2 0.0
17/10:30pm 12.4 2.2 7.1 70 2.6 N 50 61 27 33 997.6 997.7 0.0
17/10:00pm 12.1 4.5 7.4 73 2.3 N 37 46 20 25 998.9 999.0 0.0
17/09:30pm 12.0 3.6 7.3 73 2.3 NNW 41 50 22 27 999.6 999.6 0.0
17/09:00pm 12.0 3.3 7.5 74 2.2 N 43 52 23 28 1000.1 1000.1 0.0
17/08:30pm 12.0 4.7 7.3 73 2.3 N 35 46 19 25 1000.0 1000.0 0.0
17/08:00pm 11.7 4.0 7.0 73 2.3 N 37 48 20 26 1000.0 1000.0 0.0
17/07:30pm 11.8 5.1 7.3 74 2.2 N 32 37 17 20 1000.7 1000.7 0.0
17/07:00pm 11.7 4.4 7.2 74 2.2 N 35 44 19 24 1000.9 1000.9 0.0
17/06:30pm 11.7 4.4 7.2 74 2.2 N 35 41 19 22 1000.9 1000.9 0.0
17/06:00pm 11.8 3.8 7.3 74 2.2 N 39 46 21 25 1000.9 1000.9 0.0
17/05:30pm 12.0 3.3 7.5 74 2.2 N 43 48 23 26 1000.3 1000.3 0.0
17/05:00pm 12.3 3.5 7.2 71 2.5 N 43 48 23 26 1000.4 1000.4 0.0
17/04:30pm 13.0 5.4 7.5 69 2.7 N 37 43 20 23 1000.7 1000.7 0.0
17/04:00pm 13.3 5.5 6.6 64 3.2 N 37 41 20 22 1000.9 1000.9 0.0
17/03:30pm 13.0 6.6 7.0 67 2.9 NNW 30 35 16 19 1001.3 1001.3 0.0
17/03:00pm 14.0 7.6 6.8 62 3.5 NNW 30 35 16 19 1001.5 1001.5 0.0
17/02:30pm 13.7 7.2 6.3 61 3.5 N 30 37 16 20 1001.8 1001.8 0.0
17/02:00pm 13.6 8.6 6.5 62 3.4 N 22 26 12 14 1002.3 1002.3 0.0
17/01:30pm 12.7 8.1 5.6 62 3.3 N 19 22 10 12 1002.9 1002.9 0.0
17/01:00pm 13.0 7.8 5.4 60 3.6 N 22 30 12 16 1003.4 1003.4 0.0
17/12:30pm 12.6 7.5 5.8 63 3.2 N 22 28 12 15 1003.9 1003.9 0.0
17/12:00pm 11.3 6.4 5.2 66 2.8 N 20 26 11 14 1004.5 1004.5 0.0
17/11:30am 11.5 5.2 5.6 67 2.7 N 28 32 15 17 1005.0 1005.0 0.0
17/11:00am 11.0 3.7 5.5 69 2.5 N 33 37 18 20 1005.3 1005.3 0.0
17/10:30am 10.7 3.6 5.3 69 2.5 N 32 35 17 19 1005.6 1005.6 0.0
17/10:00am 9.1 2.2 4.5 73 2.0 N 30 33 16 18 1005.9 1005.9 0.0
17/09:30am 8.9 1.9 4.3 73 2.0 N 30 33 16 18 1006.2 1006.2 0.0
17/09:00am 8.3 1.3 3.9 74 1.9 N 30 33 16 18 1006.5 1006.5 0.0
17/08:30am 8.2 1.6 4.0 75 1.8 N 28 32 15 17 1006.9 1006.9 0.0
17/08:00am 7.8 1.5 3.7 75 1.8 N 26 32 14 17 1006.6 1006.6 0.0
17/07:30am 7.5 0.4 3.4 75 1.7 N 30 39 16 21 1006.4 1006.4 0.0
17/07:00am 7.6 0.5 3.5 75 1.8 N 30 35 16 19 1006.6 1006.6 0.0
17/06:30am 7.7 0.6 3.7 76 1.7 N 30 35 16 19 1006.3 1006.3 0.0
17/06:00am 7.6 0.5 3.5 75 1.8 N 30 35 16 19 1006.4 1006.4 0.0
17/05:30am 7.7 2.1 3.4 74 1.8 N 22 24 12 13 1006.5 1006.5 0.0
17/05:00am 7.4 2.1 2.9 73 1.9 NNW 20 24 11 13 1006.5 1006.5 0.0
17/04:30am 7.5 2.8 3.2 74 1.8 NNW 17 20 9 11 1006.7 1006.7 0.0
17/04:00am 7.6 1.9 3.1 73 1.9 NNW 22 26 12 14 1006.6 1006.6 0.0
17/03:30am 7.9 1.5 3.4 73 1.9 N 26 30 14 16 1006.4 1006.4 0.0
17/03:00am 8.3 3.2 2.8 68 2.3 N 19 26 10 14 1006.6 1006.6 0.0
17/02:30am 8.4 3.7 3.1 69 2.3 NNW 17 20 9 11 1006.8 1006.8 0.0
17/02:00am 8.3 3.3 3.6 72 2.0 N 19 22 10 12 1007.1 1007.1 0.0
17/01:30am 8.3 4.3 2.8 68 2.3 NNW 13 17 7 9 1007.0 1007.0 0.0
17/01:00am 8.4 4.7 2.6 67 2.4 NNW 11 15 6 8 1006.9 1006.9 0.0
17/12:30am 8.3 3.4 2.3 66 2.5 NW 17 19 9 10 1007.0 1007.0 0.0
17/12:00am 8.4 3.6 2.4 66 2.5 NW 17 19 9 10 1007.1 1007.1 0.0
 
Date/Time
EST
Temp
°C
App
Temp
°C
Dew
Point
°C
Rel
Hum
%
Delta-T
°C
Wind Press
QNH
hPa
Press
MSL
hPa
Rain since
9am
mm
Dir  Spd
km/h
Gust
km/h
Spd
kts
Gust
kts
16/11:30pm 8.6 2.9 2.6 66 2.5 NW 22 24 12 13 1006.9 1006.9 0.0
16/11:00pm 8.6 3.5 3.2 69 2.3 NW 19 24 10 13 1006.9 1006.9 0.0
16/10:30pm 8.7 3.5 3.3 69 2.3 NW 20 24 11 13 1006.9 1006.9 0.0
16/10:00pm 8.9 3.6 2.9 66 2.6 NW 20 28 11 15 1006.5 1006.5 0.0
16/09:30pm 8.9 3.8 3.1 67 2.5 NW 19 22 10 12 1006.5 1006.5 0.0
16/09:00pm 9.3 3.7 3.3 66 2.6 WNW 22 26 12 14 1006.3 1006.3 0.0
16/08:30pm 9.5 5.6 3.5 66 2.6 WNW 13 20 7 11 1006.1 1006.1 0.0
16/08:00pm 9.7 4.9 2.8 62 3.0 W 17 26 9 14 1005.9 1005.9 0.0
16/07:30pm 9.9 5.2 3.0 62 3.0 W 17 20 9 11 1005.5 1005.5 0.0
16/07:00pm 9.8 7.3 3.5 65 2.8 SW 6 7 3 4 1005.3 1005.3 0.0
16/06:30pm 9.6 5.7 3.6 66 2.6 SW 13 15 7 8 1004.7 1004.7 0.0
16/06:00pm 9.8 6.2 3.1 63 2.9 SW 11 17 6 9 1004.6 1004.6 0.0
16/05:30pm 9.6 4.6 3.4 65 2.7 SW 19 24 10 13 1003.8 1003.8 0.0
16/05:00pm 9.5 4.0 3.9 68 2.5 SSW 22 24 12 13 1003.5 1003.5 0.0
16/04:30pm 9.6 4.5 4.0 68 2.5 SSW 20 24 11 13 1003.0 1003.0 0.0
16/04:00pm 9.5 2.8 3.7 67 2.5 SW 28 35 15 19 1002.8 1002.8 0.0
16/03:30pm 9.5 1.1 3.9 68 2.5 SSW 37 43 20 23 1002.6 1002.6 0.0
16/03:00pm 10.4 2.3 3.2 61 3.1 SSW 35 43 19 23 1002.1 1002.1 0.0
16/02:30pm 10.9 6.0 3.9 62 3.1 SSW 19 28 10 15 1002.0 1002.0 0.0
16/02:00pm 12.0 5.5 2.5 52 4.2 WSW 26 41 14 22 1001.4 1001.4 0.0
16/01:30pm 11.1 4.3 2.9 57 3.6 SW 28 35 15 19 1001.2 1001.2 0.0
16/01:00pm 11.4 4.3 1.6 51 4.2 W 28 44 15 24 1001.0 1001.0 0.0
16/12:32pm 11.1 3.1 1.6 52 4.0 WSW 33 61 18 33 1000.6 1000.6 0.0
16/12:30pm 11.1 3.6 1.1 50 4.2 WSW 30 43 16 23 1000.8 1000.8 0.0
16/12:09pm 11.4 4.3 1.4 50 4.2 WSW 28 46 15 25 1001.1 1001.1 0.0
16/12:00pm 11.4 4.3 1.1 49 4.3 WSW 28 41 15 22 1001.2 1001.2 0.0
16/11:35am 10.7 2.7 0.7 50 4.1 WSW 32 52 17 28 1000.9 1000.9 0.0
16/11:30am 10.8 2.3 0.8 50 4.1 WSW 35 52 19 28 1000.8 1000.8 0.0
16/11:07am 10.5 3.3 0.5 50 4.1 WSW 28 50 15 27 1000.8 1000.8 0.0
16/11:00am 10.9 4.5 1.2 51 4.1 W 24 39 13 21 1000.8 1000.8 0.0
16/10:41am 10.5 3.4 1.3 53 3.8 W 28 54 15 29 1000.7 1000.7 0.0
16/10:30am 10.1 3.4 1.5 55 3.6 W 26 35 14 19 1000.6 1000.6 0.0
16/10:09am 9.9 3.4 2.7 61 3.1 WSW 26 52 14 28 1000.7 1000.7 0.0
16/10:00am 9.5 1.8 2.4 61 3.0 W 32 46 17 25 1000.7 1000.7 0.0
16/09:36am 9.7 2.1 2.6 61 3.0 W 32 56 17 30 1000.1 1000.1 0.0
16/09:30am 9.8 2.5 2.2 59 3.2 W 30 39 16 21 1000.2 1000.2 0.0
16/09:12am 9.5 2.5 1.7 58 3.2 W 28 48 15 26 1000.0 1000.0 0.0
16/09:08am 9.4 4.1 2.0 60 3.1 W 19 44 10 24 1000.0 1000.0 0.0
16/09:00am 9.0 5.0 2.8 65 2.7 NW 13 20 7 11 1000.2 1000.2 0.0
16/08:30am 8.5 4.5 2.7 67 2.4 NW 13 22 7 12 999.7 999.7 0.0
16/08:00am 8.6 6.0 3.2 69 2.3 NW 6 11 3 6 999.7 999.7 0.0
16/07:30am 7.8 3.5 3.1 72 2.0 NW 15 19 8 10 999.3 999.3 0.0
16/07:00am 7.6 2.2 2.7 71 2.1 WNW 20 26 11 14 998.5 998.6 0.0
16/06:30am 8.0 1.2 2.9 70 2.2 WNW 28 33 15 18 998.2 998.3 0.0
16/06:00am 7.7 2.4 3.0 72 2.0 WNW 20 26 11 14 997.8 997.9 0.0
16/05:30am 7.8 3.4 2.9 71 2.1 WNW 15 24 8 13 997.5 997.6 0.0
16/05:00am 8.3 3.0 3.0 69 2.3 NW 20 24 11 13 997.3 997.4 0.0
16/04:30am 8.7 4.4 3.3 69 2.3 NW 15 20 8 11 996.9 997.0 0.0
16/04:00am 8.6 4.7 3.2 69 2.3 NNW 13 20 7 11 996.9 997.0 0.0
16/03:30am 8.2 4.7 3.3 71 2.1 NW 11 19 6 10 996.4 996.5 0.0
16/03:00am 8.6 4.6 3.0 68 2.4 NW 13 17 7 9 996.3 996.4 0.0
16/02:30am 8.4 3.4 3.7 72 2.0 NW 19 28 10 15 996.1 996.2 0.0
16/02:00am 8.3 3.7 3.8 73 2.0 NW 17 22 9 12 995.9 996.0 0.0
16/01:30am 8.2 3.2 3.7 73 1.9 NW 19 24 10 13 995.2 995.3 0.0
16/01:00am 9.1 2.8 3.7 69 2.4 W 26 43 14 23 994.7 994.8 0.0
16/12:30am 8.4 2.5 3.7 72 2.0 NW 24 32 13 17 994.6 994.7 0.0
16/12:00am 8.2 2.3 3.9 74 1.9 NW 24 30 13 16 994.0 994.1 0.0
 
Date/Time
EST
Temp
°C
App
Temp
°C
Dew
Point
°C
Rel
Hum
%
Delta-T
°C
Wind Press
QNH
hPa
Press
MSL
hPa
Rain since
9am
mm
Dir  Spd
km/h
Gust
km/h
Spd
kts
Gust
kts
15/11:30pm 8.0 2.4 3.7 74 1.8 NW 22 30 12 16 993.7 993.8 0.0
15/11:00pm 7.9 3.2 3.4 73 1.9 NW 17 24 9 13 993.3 993.4 0.0
15/10:30pm 8.0 0.6 3.8 75 1.8 NW 32 41 17 22 992.8 992.9 0.0
15/10:00pm 8.1 -0.7 3.8 74 1.9 WNW 39 52 21 28 992.5 992.6 0.0
15/09:34pm 8.4 -1.7 4.0 74 1.9 WNW 46 65 25 35 991.6 991.6 0.0
15/09:30pm 8.5 -3.1 3.8 72 2.0 WNW 54 70 29 38 991.3 991.3 0.0
15/09:00pm 8.8 -2.9 3.6 70 2.3 WNW 54 67 29 36 991.3 991.3 0.0
15/08:30pm 8.7 -0.2 3.1 68 2.4 WNW 39 59 21 32 991.0 991.0 0.0
15/08:05pm 8.9 1.1 2.7 65 2.6 WNW 33 52 18 28 991.4 991.4 0.0
15/08:00pm 8.9 0.7 2.5 64 2.7 WNW 35 43 19 23 991.3 991.3 0.0
15/07:30pm 8.6 0.9 2.4 65 2.6 WNW 32 41 17 22 991.3 991.3 0.0
15/07:00pm 8.4 2.7 2.6 67 2.5 WNW 22 32 12 17 991.4 991.4 0.0
15/06:30pm 8.5 0.9 2.9 68 2.4 WNW 32 44 17 24 991.4 991.4 0.0
15/06:00pm 8.7 0.9 3.1 68 2.4 WNW 33 44 18 24 991.4 991.4 0.0
15/05:30pm 9.4 0.8 2.5 62 2.9 WNW 37 54 20 29 991.3 991.3 0.0
15/05:00pm 9.7 0.3 2.3 60 3.2 WNW 41 52 22 28 990.5 990.5 0.0
15/04:58pm 9.8 0.9 2.9 62 3.0 WNW 39 52 21 28 990.4 990.4 0.0
15/04:30pm 10.3 4.6 4.7 68 2.5 WNW 24 32 13 17 990.1 990.1 0.0
15/04:00pm 10.1 2.8 4.5 68 2.5 WNW 32 43 17 23 990.0 990.0 0.0
15/03:30pm 10.1 1.1 4.7 69 2.4 WNW 41 50 22 27 989.4 989.4 0.0
15/03:00pm 10.4 1.7 4.3 66 2.8 WNW 39 48 21 26 988.8 988.8 0.0
15/02:30pm 10.1 1.6 5.1 71 2.3 WNW 39 50 21 27 988.6 988.6 0.0
15/02:00pm 10.8 2.2 4.9 67 2.7 WNW 39 54 21 29 987.7 987.7 0.0
15/01:30pm 10.9 2.8 5.4 69 2.5 WNW 37 48 20 26 987.6 987.6 0.0
15/01:00pm 9.7 0.4 4.9 72 2.2 WNW 43 56 23 30 987.0 987.0 0.0
15/12:30pm 9.7 -1.3 5.1 73 2.1 NW 52 76 28 41 986.3 986.3 0.0
15/12:00pm 11.5 2.1 5.2 65 2.9 NW 44 65 24 35 986.5 986.5 0.0
15/11:50am 11.8 4.0 5.0 63 3.1 NW 35 54 19 29 986.3 986.3 0.0
15/11:30am 10.7 3.0 5.3 69 2.5 WNW 35 44 19 24 986.6 986.6 0.0
15/11:05am 10.6 -1.0 4.1 64 2.9 WNW 54 82 29 44 986.0 986.0 0.0
15/11:00am 11.0 0.3 4.7 65 2.9 NW 50 63 27 34 986.5 986.5 0.0
15/10:30am 11.5 1.1 4.0 60 3.4 NW 48 67 26 36 985.7 985.7 0.0
15/10:00am 11.3 0.9 4.1 61 3.3 NNW 48 63 26 34 986.0 986.0 0.0
15/09:54am 11.4 1.9 3.7 59 3.4 NNW 43 63 23 34 985.6 985.6 0.0
15/09:30am 10.7 0.6 4.0 63 3.0 NW 46 59 25 32 986.0 986.0 0.0
15/09:13am 11.2 2.6 4.7 64 2.9 NW 39 57 21 31 986.0 986.0 0.0
15/09:00am 10.8 1.2 4.5 65 2.9 NW 44 61 24 33 986.6 986.6 3.2
15/08:40am 10.8 1.1 4.0 63 3.0 NNW 44 65 24 35 986.2 986.2 3.2
15/08:30am 10.7 4.0 3.7 62 3.1 NW 28 41 15 22 986.5 986.5 3.0
15/08:00am 10.5 4.7 4.6 67 2.7 WNW 24 30 13 16 987.3 987.3 3.0

Other Formats:

Comma delimited format used in spreadsheet applications
http://www.bom.gov.au/fwo/IDT60801/IDT60801.95988.axf

JavaScript Object Notation format (JSON) in row-major order
http://www.bom.gov.au/fwo/IDT60801/IDT60801.95988.json